sensor_id;sensor_type;location;lat;lon;timestamp;pressure;altitude;pressure_sealevel;temperature;humidity
30516;BME280;17297;54.022;10.760;2023-01-31T00:00:17;101369.84;;;6.60;63.40
30516;BME280;17297;54.022;10.760;2023-01-31T00:02:42;101377.03;;;6.60;63.45
30516;BME280;17297;54.022;10.760;2023-01-31T00:05:08;101376.19;;;6.59;63.49
30516;BME280;17297;54.022;10.760;2023-01-31T00:07:33;101373.69;;;6.58;63.43
30516;BME280;17297;54.022;10.760;2023-01-31T00:09:59;101370.00;;;6.59;63.36
30516;BME280;17297;54.022;10.760;2023-01-31T00:12:24;101368.34;;;6.58;63.30
30516;BME280;17297;54.022;10.760;2023-01-31T00:14:49;101363.81;;;6.58;63.46
30516;BME280;17297;54.022;10.760;2023-01-31T00:17:15;101374.53;;;6.58;63.32
30516;BME280;17297;54.022;10.760;2023-01-31T00:19:40;101383.38;;;6.59;63.40
30516;BME280;17297;54.022;10.760;2023-01-31T00:22:05;101379.88;;;6.58;63.44
30516;BME280;17297;54.022;10.760;2023-01-31T00:24:30;101367.47;;;6.57;63.27
30516;BME280;17297;54.022;10.760;2023-01-31T00:26:59;101374.66;;;6.57;63.23
30516;BME280;17297;54.022;10.760;2023-01-31T00:29:25;101371.97;;;6.57;63.42
30516;BME280;17297;54.022;10.760;2023-01-31T00:31:50;101390.69;;;6.57;63.43
30516;BME280;17297;54.022;10.760;2023-01-31T00:34:17;101388.19;;;6.55;63.29
30516;BME280;17297;54.022;10.760;2023-01-31T00:36:42;101401.56;;;6.55;63.38
30516;BME280;17297;54.022;10.760;2023-01-31T00:39:09;101399.00;;;6.54;63.47
30516;BME280;17297;54.022;10.760;2023-01-31T00:41:36;101407.03;;;6.54;63.28
30516;BME280;17297;54.022;10.760;2023-01-31T00:44:04;101416.88;;;6.53;63.46
30516;BME280;17297;54.022;10.760;2023-01-31T00:46:29;101432.09;;;6.53;63.38
30516;BME280;17297;54.022;10.760;2023-01-31T00:48:55;101433.94;;;6.52;63.53
30516;BME280;17297;54.022;10.760;2023-01-31T00:51:22;101439.28;;;6.52;63.36
30516;BME280;17297;54.022;10.760;2023-01-31T00:53:48;101435.91;;;6.50;63.25
30516;BME280;17297;54.022;10.760;2023-01-31T00:56:19;101430.56;;;6.50;63.33
30516;BME280;17297;54.022;10.760;2023-01-31T00:58:47;101436.06;;;6.48;63.33
30516;BME280;17297;54.022;10.760;2023-01-31T01:01:15;101434.38;;;6.47;63.46
30516;BME280;17297;54.022;10.760;2023-01-31T01:03:42;101442.38;;;6.47;63.46
30516;BME280;17297;54.022;10.760;2023-01-31T01:06:08;101444.38;;;6.45;63.43
30516;BME280;17297;54.022;10.760;2023-01-31T01:08:35;101447.88;;;6.46;63.47
30516;BME280;17297;54.022;10.760;2023-01-31T01:11:23;101447.19;;;6.44;63.41
30516;BME280;17297;54.022;10.760;2023-01-31T01:13:49;101440.16;;;6.43;63.35
30516;BME280;17297;54.022;10.760;2023-01-31T01:16:18;101444.69;;;6.42;63.33
30516;BME280;17297;54.022;10.760;2023-01-31T01:18:45;101453.53;;;6.43;63.51
30516;BME280;17297;54.022;10.760;2023-01-31T01:21:18;101459.00;;;6.41;63.56
30516;BME280;17297;54.022;10.760;2023-01-31T01:23:44;101457.34;;;6.40;63.53
30516;BME280;17297;54.022;10.760;2023-01-31T01:26:16;101451.16;;;6.40;63.56
30516;BME280;17297;54.022;10.760;2023-01-31T01:28:41;101462.69;;;6.40;63.47
30516;BME280;17297;54.022;10.760;2023-01-31T01:31:08;101460.00;;;6.40;63.37
30516;BME280;17297;54.022;10.760;2023-01-31T01:33:35;101460.84;;;6.41;63.39
30516;BME280;17297;54.022;10.760;2023-01-31T01:36:05;101469.03;;;6.39;63.62
30516;BME280;17297;54.022;10.760;2023-01-31T01:38:38;101471.53;;;6.41;63.53
30516;BME280;17297;54.022;10.760;2023-01-31T01:41:05;101479.72;;;6.39;63.57
30516;BME280;17297;54.022;10.760;2023-01-31T01:43:47;101474.50;;;6.38;63.67
30516;BME280;17297;54.022;10.760;2023-01-31T01:46:35;101460.31;;;6.37;63.73
30516;BME280;17297;54.022;10.760;2023-01-31T01:49:14;101467.50;;;6.37;63.61
30516;BME280;17297;54.022;10.760;2023-01-31T01:51:41;101466.66;;;6.36;63.66
30516;BME280;17297;54.022;10.760;2023-01-31T01:54:12;101462.44;;;6.34;63.39
30516;BME280;17297;54.022;10.760;2023-01-31T01:56:42;101472.28;;;6.33;63.64
30516;BME280;17297;54.022;10.760;2023-01-31T01:59:19;101474.13;;;6.33;63.71
30516;BME280;17297;54.022;10.760;2023-01-31T02:01:46;101470.28;;;6.35;63.54
30516;BME280;17297;54.022;10.760;2023-01-31T02:04:18;101465.94;;;6.34;63.53
30516;BME280;17297;54.022;10.760;2023-01-31T02:06:45;101472.97;;;6.35;63.51
30516;BME280;17297;54.022;10.760;2023-01-31T02:09:18;101472.13;;;6.35;63.77
30516;BME280;17297;54.022;10.760;2023-01-31T02:11:44;101460.47;;;6.36;63.50
30516;BME280;17297;54.022;10.760;2023-01-31T02:14:10;101466.66;;;6.36;63.74
30516;BME280;17297;54.022;10.760;2023-01-31T02:16:36;101464.81;;;6.37;63.56
30516;BME280;17297;54.022;10.760;2023-01-31T02:19:11;101463.81;;;6.38;63.59
30516;BME280;17297;54.022;10.760;2023-01-31T02:22:02;101461.84;;;6.40;63.59
30516;BME280;17297;54.022;10.760;2023-01-31T02:27:22;101468.72;;;6.42;63.61
30516;BME280;17297;54.022;10.760;2023-01-31T02:38:59;101479.44;;;6.42;63.83
30516;BME280;17297;54.022;10.760;2023-01-31T02:41:33;101468.72;;;6.42;63.65
30516;BME280;17297;54.022;10.760;2023-01-31T02:47:04;101478.59;;;6.42;63.81
30516;BME280;17297;54.022;10.760;2023-01-31T02:49:46;101476.03;;;6.40;63.79
30516;BME280;17297;54.022;10.760;2023-01-31T02:52:40;101482.22;;;6.41;63.74
30516;BME280;17297;54.022;10.760;2023-01-31T02:55:21;101493.63;;;6.43;63.91
30516;BME280;17297;54.022;10.760;2023-01-31T02:58:32;101494.75;;;6.40;63.78
30516;BME280;17297;54.022;10.760;2023-01-31T03:01:02;101491.09;;;6.41;63.67
30516;BME280;17297;54.022;10.760;2023-01-31T03:03:31;101484.06;;;6.40;63.85
30516;BME280;17297;54.022;10.760;2023-01-31T03:06:39;101490.25;;;6.41;63.93
30516;BME280;17297;54.022;10.760;2023-01-31T03:09:11;101487.56;;;6.41;63.75
30516;BME280;17297;54.022;10.760;2023-01-31T03:11:58;101490.25;;;6.41;63.63
30516;BME280;17297;54.022;10.760;2023-01-31T03:14:35;101495.75;;;6.39;63.69
30516;BME280;17297;54.022;10.760;2023-01-31T03:20:12;101483.22;;;6.40;63.84
30516;BME280;17297;54.022;10.760;2023-01-31T03:22:56;101482.22;;;6.41;63.89
30516;BME280;17297;54.022;10.760;2023-01-31T03:25:26;101479.56;;;6.41;63.93
30516;BME280;17297;54.022;10.760;2023-01-31T03:27:58;101483.94;;;6.42;63.90
30516;BME280;17297;54.022;10.760;2023-01-31T03:30:33;101482.09;;;6.42;64.18
30516;BME280;17297;54.022;10.760;2023-01-31T03:33:19;101484.78;;;6.42;63.96
30516;BME280;17297;54.022;10.760;2023-01-31T03:35:52;101491.78;;;6.43;63.94
30516;BME280;17297;54.022;10.760;2023-01-31T03:38:28;101476.59;;;6.44;64.17
30516;BME280;17297;54.022;10.760;2023-01-31T03:40:59;101477.28;;;6.46;64.19
30516;BME280;17297;54.022;10.760;2023-01-31T03:43:36;101482.47;;;6.47;64.34
30516;BME280;17297;54.022;10.760;2023-01-31T03:46:38;101479.38;;;6.52;64.26
30516;BME280;17297;54.022;10.760;2023-01-31T03:48:56;101479.22;;;6.54;64.26
30516;BME280;17297;54.022;10.760;2023-01-31T03:51:28;101480.75;;;6.56;64.17
30516;BME280;17297;54.022;10.760;2023-01-31T03:54:01;101493.81;;;6.59;64.14
30516;BME280;17297;54.022;10.760;2023-01-31T03:56:31;101486.50;;;6.61;64.29
30516;BME280;17297;54.022;10.760;2023-01-31T03:59:07;101494.22;;;6.64;64.19
30516;BME280;17297;54.022;10.760;2023-01-31T04:01:36;101488.72;;;6.66;64.33
30516;BME280;17297;54.022;10.760;2023-01-31T04:04:07;101496.44;;;6.69;64.40
30516;BME280;17297;54.022;10.760;2023-01-31T04:06:33;101498.97;;;6.70;64.26
30516;BME280;17297;54.022;10.760;2023-01-31T04:08:59;101500.50;;;6.73;64.47
30516;BME280;17297;54.022;10.760;2023-01-31T04:11:25;101482.63;;;6.74;64.42
30516;BME280;17297;54.022;10.760;2023-01-31T04:13:53;101492.31;;;6.75;64.35
30516;BME280;17297;54.022;10.760;2023-01-31T04:16:18;101495.84;;;6.75;64.42
30516;BME280;17297;54.022;10.760;2023-01-31T04:18:44;101484.31;;;6.75;64.36
30516;BME280;17297;54.022;10.760;2023-01-31T04:21:09;101484.47;;;6.73;64.28
30516;BME280;17297;54.022;10.760;2023-01-31T04:23:35;101489.81;;;6.73;64.24
30516;BME280;17297;54.022;10.760;2023-01-31T04:26:01;101490.78;;;6.72;64.43
30516;BME280;17297;54.022;10.760;2023-01-31T04:28:27;101493.47;;;6.72;64.57
30516;BME280;17297;54.022;10.760;2023-01-31T04:30:55;101486.44;;;6.71;64.51
30516;BME280;17297;54.022;10.760;2023-01-31T04:33:21;101486.44;;;6.71;64.43
30516;BME280;17297;54.022;10.760;2023-01-31T04:35:47;101492.50;;;6.73;64.29
30516;BME280;17297;54.022;10.760;2023-01-31T04:38:14;101479.41;;;6.70;64.42
30516;BME280;17297;54.022;10.760;2023-01-31T04:40:39;101485.59;;;6.70;64.50
30516;BME280;17297;54.022;10.760;2023-01-31T04:43:05;101473.38;;;6.68;64.35
30516;BME280;17297;54.022;10.760;2023-01-31T04:45:30;101475.22;;;6.67;64.34
30516;BME280;17297;54.022;10.760;2023-01-31T04:47:56;101478.00;;;6.66;64.39
30516;BME280;17297;54.022;10.760;2023-01-31T04:50:21;101472.00;;;6.64;64.34
30516;BME280;17297;54.022;10.760;2023-01-31T04:52:50;101468.63;;;6.62;64.50
30516;BME280;17297;54.022;10.760;2023-01-31T04:55:15;101474.97;;;6.61;64.42
30516;BME280;17297;54.022;10.760;2023-01-31T04:57:41;101496.34;;;6.61;64.54
30516;BME280;17297;54.022;10.760;2023-01-31T05:00:07;101490.13;;;6.60;64.59
30516;BME280;17297;54.022;10.760;2023-01-31T05:02:32;101481.44;;;6.58;64.66
30516;BME280;17297;54.022;10.760;2023-01-31T05:04:58;101481.28;;;6.60;64.67
30516;BME280;17297;54.022;10.760;2023-01-31T05:07:23;101485.78;;;6.59;64.46
30516;BME280;17297;54.022;10.760;2023-01-31T05:09:48;101486.63;;;6.60;64.61
30516;BME280;17297;54.022;10.760;2023-01-31T05:12:13;101484.97;;;6.59;64.84
30516;BME280;17297;54.022;10.760;2023-01-31T05:14:39;101484.97;;;6.59;64.66
30516;BME280;17297;54.022;10.760;2023-01-31T05:17:04;101478.63;;;6.60;64.75
30516;BME280;17297;54.022;10.760;2023-01-31T05:19:30;101479.44;;;6.60;64.82
30516;BME280;17297;54.022;10.760;2023-01-31T05:21:56;101466.78;;;6.62;64.79
30516;BME280;17297;54.022;10.760;2023-01-31T05:24:29;101466.78;;;6.62;64.77
30516;BME280;17297;54.022;10.760;2023-01-31T05:26:56;101458.63;;;6.64;64.87
30516;BME280;17297;54.022;10.760;2023-01-31T05:29:31;101455.78;;;6.65;64.75
30516;BME280;17297;54.022;10.760;2023-01-31T05:31:57;101460.13;;;6.66;64.90
30516;BME280;17297;54.022;10.760;2023-01-31T05:34:24;101454.66;;;6.68;64.98
30516;BME280;17297;54.022;10.760;2023-01-31T05:36:51;101454.50;;;6.69;64.80
30516;BME280;17297;54.022;10.760;2023-01-31T05:39:17;101455.19;;;6.71;64.83
30516;BME280;17297;54.022;10.760;2023-01-31T05:41:42;101458.56;;;6.74;64.92
30516;BME280;17297;54.022;10.760;2023-01-31T05:44:08;101454.75;;;6.76;64.96
30516;BME280;17297;54.022;10.760;2023-01-31T05:46:35;101447.56;;;6.77;65.11
30516;BME280;17297;54.022;10.760;2023-01-31T05:49:00;101446.44;;;6.79;65.13
30516;BME280;17297;54.022;10.760;2023-01-31T05:51:25;101449.09;;;6.79;64.97
30516;BME280;17297;54.022;10.760;2023-01-31T05:53:51;101449.78;;;6.81;65.08
30516;BME280;17297;54.022;10.760;2023-01-31T05:56:16;101452.44;;;6.81;65.35
30516;BME280;17297;54.022;10.760;2023-01-31T05:58:42;101451.47;;;6.82;65.18
30516;BME280;17297;54.022;10.760;2023-01-31T06:01:07;101446.97;;;6.83;65.40
30516;BME280;17297;54.022;10.760;2023-01-31T06:03:33;101446.97;;;6.83;65.27
30516;BME280;17297;54.022;10.760;2023-01-31T06:05:58;101448.63;;;6.84;65.49
30516;BME280;17297;54.022;10.760;2023-01-31T06:08:23;101452.00;;;6.86;65.64
30516;BME280;17297;54.022;10.760;2023-01-31T06:10:49;101442.16;;;6.86;65.46
30516;BME280;17297;54.022;10.760;2023-01-31T06:13:14;101434.97;;;6.87;65.47
30516;BME280;17297;54.022;10.760;2023-01-31T06:15:43;101429.63;;;6.87;65.83
30516;BME280;17297;54.022;10.760;2023-01-31T06:18:09;101427.78;;;6.87;65.62
30516;BME280;17297;54.022;10.760;2023-01-31T06:20:37;101423.25;;;6.88;65.90
30516;BME280;17297;54.022;10.760;2023-01-31T06:23:03;101426.78;;;6.88;65.92
30516;BME280;17297;54.022;10.760;2023-01-31T06:25:30;101418.75;;;6.88;65.74
30516;BME280;17297;54.022;10.760;2023-01-31T06:27:55;101409.88;;;6.88;65.86
30516;BME280;17297;54.022;10.760;2023-01-31T06:30:21;101412.44;;;6.89;65.90
30516;BME280;17297;54.022;10.760;2023-01-31T06:32:46;101399.06;;;6.89;65.99
30516;BME280;17297;54.022;10.760;2023-01-31T06:35:12;101402.69;;;6.88;66.01
30516;BME280;17297;54.022;10.760;2023-01-31T06:37:37;101409.06;;;6.87;65.94
30516;BME280;17297;54.022;10.760;2023-01-31T06:40:03;101403.69;;;6.87;66.12
30516;BME280;17297;54.022;10.760;2023-01-31T06:42:28;101407.22;;;6.88;66.18
30516;BME280;17297;54.022;10.760;2023-01-31T06:44:54;101406.38;;;6.87;66.03
30516;BME280;17297;54.022;10.760;2023-01-31T06:47:19;101397.22;;;6.90;66.09
30516;BME280;17297;54.022;10.760;2023-01-31T06:49:44;101391.69;;;6.91;66.18
30516;BME280;17297;54.022;10.760;2023-01-31T06:52:10;101389.72;;;6.93;66.34
30516;BME280;17297;54.022;10.760;2023-01-31T06:54:35;101394.94;;;6.95;66.36
30516;BME280;17297;54.022;10.760;2023-01-31T06:57:00;101390.25;;;6.97;66.44
30516;BME280;17297;54.022;10.760;2023-01-31T06:59:26;101394.63;;;6.98;66.53
30516;BME280;17297;54.022;10.760;2023-01-31T07:01:51;101404.31;;;6.99;66.56
30516;BME280;17297;54.022;10.760;2023-01-31T07:04:16;101404.00;;;7.02;66.60
30516;BME280;17297;54.022;10.760;2023-01-31T07:06:42;101399.50;;;7.03;66.67
30516;BME280;17297;54.022;10.760;2023-01-31T07:09:07;101395.69;;;7.05;66.62
30516;BME280;17297;54.022;10.760;2023-01-31T07:11:32;101397.34;;;7.06;66.64
30516;BME280;17297;54.022;10.760;2023-01-31T07:13:58;101393.69;;;7.07;66.65
30516;BME280;17297;54.022;10.760;2023-01-31T07:16:23;101385.50;;;7.09;66.84
30516;BME280;17297;54.022;10.760;2023-01-31T07:18:53;101385.38;;;7.10;66.91
30516;BME280;17297;54.022;10.760;2023-01-31T07:21:18;101380.00;;;7.10;66.79
30516;BME280;17297;54.022;10.760;2023-01-31T07:23:44;101376.34;;;7.11;66.95
30516;BME280;17297;54.022;10.760;2023-01-31T07:26:10;101371.69;;;7.13;66.96
30516;BME280;17297;54.022;10.760;2023-01-31T07:28:35;101369.66;;;7.15;66.92
30516;BME280;17297;54.022;10.760;2023-01-31T07:31:10;101366.16;;;7.15;67.10
30516;BME280;17297;54.022;10.760;2023-01-31T07:33:36;101356.16;;;7.17;67.11
30516;BME280;17297;54.022;10.760;2023-01-31T07:36:03;101359.50;;;7.19;67.09
30516;BME280;17297;54.022;10.760;2023-01-31T07:38:29;101355.66;;;7.22;67.11
30516;BME280;17297;54.022;10.760;2023-01-31T07:40:58;101351.00;;;7.24;67.37
30516;BME280;17297;54.022;10.760;2023-01-31T07:43:23;101356.06;;;7.27;67.25
30516;BME280;17297;54.022;10.760;2023-01-31T07:45:50;101338.16;;;7.27;67.36
30516;BME280;17297;54.022;10.760;2023-01-31T07:48:16;101337.13;;;7.28;67.18
30516;BME280;17297;54.022;10.760;2023-01-31T07:50:56;101329.63;;;7.32;67.25
30516;BME280;17297;54.022;10.760;2023-01-31T07:53:22;101325.16;;;7.32;67.13
30516;BME280;17297;54.022;10.760;2023-01-31T07:55:47;101316.94;;;7.34;67.37
30516;BME280;17297;54.022;10.760;2023-01-31T07:58:15;101312.44;;;7.34;67.46
30516;BME280;17297;54.022;10.760;2023-01-31T08:00:41;101303.41;;;7.35;67.41
30516;BME280;17297;54.022;10.760;2023-01-31T08:03:28;101299.56;;;7.38;67.35
30516;BME280;17297;54.022;10.760;2023-01-31T08:05:57;101305.78;;;7.38;67.50
30516;BME280;17297;54.022;10.760;2023-01-31T08:08:22;101294.91;;;7.40;67.39
30516;BME280;17297;54.022;10.760;2023-01-31T08:10:48;101287.69;;;7.40;67.53
30516;BME280;17297;54.022;10.760;2023-01-31T08:13:13;101277.69;;;7.43;67.43
30516;BME280;17297;54.022;10.760;2023-01-31T08:15:38;101286.56;;;7.43;67.57
30516;BME280;17297;54.022;10.760;2023-01-31T08:18:04;101268.66;;;7.44;67.52
30516;BME280;17297;54.022;10.760;2023-01-31T08:20:29;101266.81;;;7.44;67.58
30516;BME280;17297;54.022;10.760;2023-01-31T08:22:55;101265.66;;;7.47;67.50
30516;BME280;17297;54.022;10.760;2023-01-31T08:25:22;101256.97;;;7.45;67.52
30516;BME280;17297;54.022;10.760;2023-01-31T08:27:47;101247.75;;;7.47;67.50
30516;BME280;17297;54.022;10.760;2023-01-31T08:30:13;101243.41;;;7.46;67.57
30516;BME280;17297;54.022;10.760;2023-01-31T08:32:38;101244.94;;;7.49;67.68
30516;BME280;17297;54.022;10.760;2023-01-31T08:35:04;101244.94;;;7.49;67.68
30516;BME280;17297;54.022;10.760;2023-01-31T08:37:29;101236.72;;;7.50;67.69
30516;BME280;17297;54.022;10.760;2023-01-31T08:39:59;101235.75;;;7.51;67.60
30516;BME280;17297;54.022;10.760;2023-01-31T08:42:24;101225.03;;;7.51;67.76
30516;BME280;17297;54.022;10.760;2023-01-31T08:44:50;101224.84;;;7.53;67.59
30516;BME280;17297;54.022;10.760;2023-01-31T08:47:15;101208.78;;;7.53;67.73
30516;BME280;17297;54.022;10.760;2023-01-31T08:49:40;101209.63;;;7.53;67.65
30516;BME280;17297;54.022;10.760;2023-01-31T08:52:06;101208.66;;;7.54;67.64
30516;BME280;17297;54.022;10.760;2023-01-31T08:54:32;101209.28;;;7.56;67.68
30516;BME280;17297;54.022;10.760;2023-01-31T08:56:57;101206.63;;;7.56;67.91
30516;BME280;17297;54.022;10.760;2023-01-31T08:59:22;101196.75;;;7.57;67.69
30516;BME280;17297;54.022;10.760;2023-01-31T09:01:48;101190.22;;;7.59;67.71
30516;BME280;17297;54.022;10.760;2023-01-31T09:04:15;101182.19;;;7.59;67.96
30516;BME280;17297;54.022;10.760;2023-01-31T09:06:40;101173.84;;;7.62;68.01
30516;BME280;17297;54.022;10.760;2023-01-31T09:09:06;101172.69;;;7.65;67.97
30516;BME280;17297;54.022;10.760;2023-01-31T09:11:32;101169.69;;;7.68;68.05
30516;BME280;17297;54.022;10.760;2023-01-31T09:14:00;101161.50;;;7.70;68.03
30516;BME280;17297;54.022;10.760;2023-01-31T09:16:25;101154.94;;;7.72;68.12
30516;BME280;17297;54.022;10.760;2023-01-31T09:18:51;101144.09;;;7.74;67.95
30516;BME280;17297;54.022;10.760;2023-01-31T09:21:19;101139.56;;;7.74;68.09
30516;BME280;17297;54.022;10.760;2023-01-31T09:23:46;101136.75;;;7.76;68.00
30516;BME280;17297;54.022;10.760;2023-01-31T09:26:14;101130.38;;;7.77;68.15
30516;BME280;17297;54.022;10.760;2023-01-31T09:28:40;101120.34;;;7.79;68.17
30516;BME280;17297;54.022;10.760;2023-01-31T09:31:12;101118.50;;;7.79;68.14
30516;BME280;17297;54.022;10.760;2023-01-31T09:33:38;101110.13;;;7.82;68.22
30516;BME280;17297;54.022;10.760;2023-01-31T09:36:07;101106.44;;;7.83;68.01
30516;BME280;17297;54.022;10.760;2023-01-31T09:38:33;101102.75;;;7.84;68.08
30516;BME280;17297;54.022;10.760;2023-01-31T09:41:01;101092.22;;;7.83;68.29
30516;BME280;17297;54.022;10.760;2023-01-31T09:43:30;101091.19;;;7.84;68.14
30516;BME280;17297;54.022;10.760;2023-01-31T09:46:00;101098.25;;;7.85;68.19
30516;BME280;17297;54.022;10.760;2023-01-31T09:48:32;101091.88;;;7.86;68.38
30516;BME280;17297;54.022;10.760;2023-01-31T09:51:02;101082.00;;;7.86;68.26
30516;BME280;17297;54.022;10.760;2023-01-31T09:53:33;101076.63;;;7.86;68.42
30516;BME280;17297;54.022;10.760;2023-01-31T10:01:37;101070.13;;;7.89;68.38
30516;BME280;17297;54.022;10.760;2023-01-31T10:06:47;101055.03;;;7.88;68.58
30516;BME280;17297;54.022;10.760;2023-01-31T10:09:26;101051.38;;;7.89;68.60
30516;BME280;17297;54.022;10.760;2023-01-31T10:11:58;101036.13;;;7.90;68.50
30516;BME280;17297;54.022;10.760;2023-01-31T10:14:35;101032.28;;;7.92;68.65
30516;BME280;17297;54.022;10.760;2023-01-31T10:17:10;101028.59;;;7.93;68.58
30516;BME280;17297;54.022;10.760;2023-01-31T10:19:55;101013.34;;;7.94;68.72
30516;BME280;17297;54.022;10.760;2023-01-31T10:22:31;101009.69;;;7.95;68.75
30516;BME280;17297;54.022;10.760;2023-01-31T10:25:03;100997.13;;;7.95;68.56
30516;BME280;17297;54.022;10.760;2023-01-31T10:30:03;100989.72;;;7.97;68.66
30516;BME280;17297;54.022;10.760;2023-01-31T10:32:36;100978.19;;;7.97;68.65
30516;BME280;17297;54.022;10.760;2023-01-31T10:35:20;100978.19;;;7.97;68.86
30516;BME280;17297;54.022;10.760;2023-01-31T10:37:52;100970.13;;;7.97;68.86
30516;BME280;17297;54.022;10.760;2023-01-31T10:40:39;100979.00;;;7.97;68.91
30516;BME280;17297;54.022;10.760;2023-01-31T10:43:15;100962.94;;;7.97;68.96
30516;BME280;17297;54.022;10.760;2023-01-31T10:45:43;100956.59;;;7.98;68.92
30516;BME280;17297;54.022;10.760;2023-01-31T10:48:17;100961.13;;;7.98;68.91
30516;BME280;17297;54.022;10.760;2023-01-31T10:53:55;100925.09;;;8.00;69.19
30516;BME280;17297;54.022;10.760;2023-01-31T10:56:35;100914.22;;;8.02;68.98
30516;BME280;17297;54.022;10.760;2023-01-31T10:59:13;100916.69;;;8.03;69.26
30516;BME280;17297;54.022;10.760;2023-01-31T11:01:42;100900.47;;;8.05;68.90
30516;BME280;17297;54.022;10.760;2023-01-31T11:04:39;100909.19;;;8.07;69.14
30516;BME280;17297;54.022;10.760;2023-01-31T11:07:05;100913.53;;;8.08;69.08
30516;BME280;17297;54.022;10.760;2023-01-31T11:09:39;100916.88;;;8.10;69.41
30516;BME280;17297;54.022;10.760;2023-01-31T11:12:06;100908.66;;;8.12;69.26
30516;BME280;17297;54.022;10.760;2023-01-31T11:14:32;100913.00;;;8.13;69.14
30516;BME280;17297;54.022;10.760;2023-01-31T11:19:49;100908.16;;;8.16;69.49
30516;BME280;17297;54.022;10.760;2023-01-31T11:22:29;100898.06;;;8.18;69.52
30516;BME280;17297;54.022;10.760;2023-01-31T11:24:56;100885.50;;;8.19;69.35
30516;BME280;17297;54.022;10.760;2023-01-31T11:27:28;100886.84;;;8.23;69.61
30516;BME280;17297;54.022;10.760;2023-01-31T11:29:56;100886.50;;;8.26;69.45
30516;BME280;17297;54.022;10.760;2023-01-31T11:32:27;100874.56;;;8.28;69.58
30516;BME280;17297;54.022;10.760;2023-01-31T11:34:58;100873.22;;;8.32;69.81
30516;BME280;17297;54.022;10.760;2023-01-31T11:37:24;100864.00;;;8.35;69.84
30516;BME280;17297;54.022;10.760;2023-01-31T11:40:02;100863.69;;;8.38;69.88
30516;BME280;17297;54.022;10.760;2023-01-31T11:42:50;100860.00;;;8.39;69.84
30516;BME280;17297;54.022;10.760;2023-01-31T11:45:18;100862.31;;;8.42;69.90
30516;BME280;17297;54.022;10.760;2023-01-31T11:47:51;100846.91;;;8.44;69.93
30516;BME280;17297;54.022;10.760;2023-01-31T11:50:37;100854.75;;;8.46;69.73
30516;BME280;17297;54.022;10.760;2023-01-31T11:53:16;100855.41;;;8.48;69.92
30516;BME280;17297;54.022;10.760;2023-01-31T11:55:43;100848.22;;;8.48;69.65
30516;BME280;17297;54.022;10.760;2023-01-31T12:00:56;100823.88;;;8.50;70.07
30516;BME280;17297;54.022;10.760;2023-01-31T12:03:22;100816.50;;;8.52;70.03
30516;BME280;17297;54.022;10.760;2023-01-31T12:05:51;100813.63;;;8.53;70.06
30516;BME280;17297;54.022;10.760;2023-01-31T12:08:38;100801.09;;;8.54;69.92
30516;BME280;17297;54.022;10.760;2023-01-31T12:16:11;100801.38;;;8.59;70.00
30516;BME280;17297;54.022;10.760;2023-01-31T12:21:34;100807.03;;;8.64;70.34
30516;BME280;17297;54.022;10.760;2023-01-31T12:24:15;100805.03;;;8.66;70.41
30516;BME280;17297;54.022;10.760;2023-01-31T12:26:46;100807.50;;;8.68;70.25
30516;BME280;17297;54.022;10.760;2023-01-31T12:29:37;100783.22;;;8.69;70.30
30516;BME280;17297;54.022;10.760;2023-01-31T12:53:12;100730.72;;;8.90;70.81
30516;BME280;17297;54.022;10.760;2023-01-31T13:02:25;100728.13;;;8.96;70.77
30516;BME280;17297;54.022;10.760;2023-01-31T13:05:02;100726.94;;;8.99;70.89
30516;BME280;17297;54.022;10.760;2023-01-31T13:07:47;100729.25;;;9.02;70.84
30516;BME280;17297;54.022;10.760;2023-01-31T13:10:38;100726.41;;;9.04;71.04
30516;BME280;17297;54.022;10.760;2023-01-31T13:13:10;100728.72;;;9.07;70.93
30516;BME280;17297;54.022;10.760;2023-01-31T13:15:47;100727.31;;;9.11;71.04
30516;BME280;17297;54.022;10.760;2023-01-31T13:18:15;100719.94;;;9.13;71.06
30516;BME280;17297;54.022;10.760;2023-01-31T13:20:45;100715.03;;;9.16;71.21
30516;BME280;17297;54.022;10.760;2023-01-31T13:23:25;100710.13;;;9.20;71.16
30516;BME280;17297;54.022;10.760;2023-01-31T13:26:07;100715.13;;;9.23;71.17
30516;BME280;17297;54.022;10.760;2023-01-31T13:28:40;100715.75;;;9.25;71.21
30516;BME280;17297;54.022;10.760;2023-01-31T13:31:18;100695.75;;;9.28;71.18
30516;BME280;17297;54.022;10.760;2023-01-31T13:33:48;100707.31;;;9.28;71.24
30516;BME280;17297;54.022;10.760;2023-01-31T13:39:38;100702.63;;;9.30;71.17
30516;BME280;17297;54.022;10.760;2023-01-31T13:42:04;100692.69;;;9.31;71.20
30516;BME280;17297;54.022;10.760;2023-01-31T13:44:31;100679.94;;;9.33;71.20
30516;BME280;17297;54.022;10.760;2023-01-31T13:47:26;100685.09;;;9.34;71.49
30516;BME280;17297;54.022;10.760;2023-01-31T13:50:03;100682.25;;;9.36;71.50
30516;BME280;17297;54.022;10.760;2023-01-31T13:52:34;100666.78;;;9.38;71.28
30516;BME280;17297;54.022;10.760;2023-01-31T13:55:13;100656.69;;;9.40;71.44
30516;BME280;17297;54.022;10.760;2023-01-31T13:57:51;100669.09;;;9.41;71.45
30516;BME280;17297;54.022;10.760;2023-01-31T14:00:36;100667.88;;;9.43;71.53
30516;BME280;17297;54.022;10.760;2023-01-31T14:03:09;100657.13;;;9.43;71.61
30516;BME280;17297;54.022;10.760;2023-01-31T14:10:51;100650.56;;;9.46;71.39
30516;BME280;17297;54.022;10.760;2023-01-31T14:13:25;100646.88;;;9.47;71.37
30516;BME280;17297;54.022;10.760;2023-01-31T14:15:52;100649.34;;;9.48;71.31
30516;BME280;17297;54.022;10.760;2023-01-31T14:18:42;100670.00;;;9.48;71.39
30516;BME280;17297;54.022;10.760;2023-01-31T14:23:56;100672.50;;;9.49;71.46
30516;BME280;17297;54.022;10.760;2023-01-31T14:29:19;100674.19;;;9.51;71.39
30516;BME280;17297;54.022;10.760;2023-01-31T14:31:47;100677.03;;;9.49;71.32